createdAt,value
2023-01-25T00:00:43.179Z,97.60
2023-01-25T00:03:24.586Z,94.20
2023-01-25T00:05:59.826Z,95.10
2023-01-25T00:08:26.553Z,88.70
2023-01-25T00:10:53.043Z,92.90
2023-01-25T00:13:19.629Z,93.20
2023-01-25T00:15:46.114Z,99.40
2023-01-25T00:18:12.761Z,98.50
2023-01-25T00:20:39.311Z,83.40
2023-01-25T00:23:05.896Z,85.30
2023-01-25T00:25:32.456Z,94.20
2023-01-25T00:27:58.946Z,89.80
2023-01-25T00:30:25.530Z,91.80
2023-01-25T00:33:06.055Z,88.00
2023-01-25T00:35:33.992Z,85.80
2023-01-25T00:38:02.917Z,85.50
2023-01-25T00:40:29.649Z,85.40
2023-01-25T00:42:56.528Z,90.20
2023-01-25T00:45:22.996Z,84.30
2023-01-25T00:47:49.868Z,83.60
2023-01-25T00:50:16.450Z,80.70
2023-01-25T00:52:42.948Z,80.10
2023-01-25T00:55:10.073Z,89.50
2023-01-25T00:57:36.907Z,87.20
2023-01-25T01:00:04.456Z,91.70
2023-01-25T01:02:31.203Z,94.00
2023-01-25T01:04:58.257Z,94.00
2023-01-25T01:07:24.868Z,102.10
2023-01-25T01:09:51.479Z,102.50
2023-01-25T01:12:18.041Z,104.10
2023-01-25T01:14:44.781Z,116.20
2023-01-25T01:17:11.232Z,106.50
2023-01-25T01:19:37.785Z,100.70
2023-01-25T01:22:04.415Z,87.90
2023-01-25T01:24:30.923Z,92.20
2023-01-25T01:26:57.639Z,91.80
2023-01-25T01:29:24.211Z,90.40
2023-01-25T01:31:55.340Z,97.60
2023-01-25T01:34:22.202Z,87.60
2023-01-25T01:36:48.808Z,88.40
2023-01-25T01:39:15.475Z,90.20
2023-01-25T01:41:42.095Z,91.70
2023-01-25T01:44:16.764Z,87.00
2023-01-25T01:46:48.818Z,88.90
2023-01-25T01:49:28.743Z,97.80
2023-01-25T01:52:12.821Z,97.40
2023-01-25T01:54:52.039Z,92.30
2023-01-25T01:57:26.455Z,97.90
2023-01-25T02:00:03.419Z,96.70
2023-01-25T02:02:30.188Z,102.40
2023-01-25T02:05:00.833Z,100.90
2023-01-25T02:07:35.111Z,89.90
2023-01-25T02:10:07.599Z,92.50
2023-01-25T02:12:35.467Z,90.10
2023-01-25T02:15:02.167Z,92.00
2023-01-25T02:17:33.619Z,92.70
2023-01-25T02:20:07.903Z,82.50
2023-01-25T02:23:23.412Z,94.60
2023-01-25T02:25:50.667Z,91.90
2023-01-25T02:28:35.600Z,92.50
2023-01-25T02:31:02.233Z,96.70
2023-01-25T02:33:29.418Z,94.50
2023-01-25T02:36:08.342Z,98.30
2023-01-25T02:38:42.894Z,96.80
2023-01-25T02:41:23.285Z,86.60
2023-01-25T02:43:49.973Z,80.20
2023-01-25T02:46:27.129Z,77.80
2023-01-25T02:48:58.670Z,91.10
2023-01-25T02:51:28.543Z,85.10
2023-01-25T02:53:55.935Z,91.10
2023-01-25T02:56:23.204Z,90.70
2023-01-25T02:58:50.144Z,93.10
2023-01-25T03:01:17.202Z,89.80
2023-01-25T03:03:44.018Z,89.30
2023-01-25T03:06:11.036Z,89.20
2023-01-25T03:08:37.583Z,87.50
2023-01-25T03:11:06.229Z,85.70
2023-01-25T03:13:34.718Z,86.80
2023-01-25T03:16:08.801Z,98.20
2023-01-25T03:18:36.338Z,85.90
2023-01-25T03:21:15.444Z,89.80
2023-01-25T03:23:43.741Z,87.50
2023-01-25T03:26:11.529Z,91.30
2023-01-25T03:28:39.297Z,86.70
2023-01-25T03:31:07.957Z,89.70
2023-01-25T03:33:34.911Z,91.00
2023-01-25T03:36:03.298Z,93.20
2023-01-25T03:38:33.041Z,89.50
2023-01-25T03:40:59.764Z,91.20
2023-01-25T03:43:26.544Z,84.40
2023-01-25T03:45:57.154Z,82.00
2023-01-25T03:48:25.005Z,91.40
2023-01-25T03:50:57.130Z,91.30
2023-01-25T03:53:28.449Z,93.90
2023-01-25T03:56:08.026Z,90.60
2023-01-25T03:58:38.334Z,98.90
2023-01-25T04:01:09.493Z,95.50
2023-01-25T04:03:36.427Z,94.10
2023-01-25T04:06:04.777Z,88.90
2023-01-25T04:08:31.852Z,95.10
2023-01-25T04:11:08.335Z,91.90
2023-01-25T04:13:36.379Z,93.70
2023-01-25T04:16:05.106Z,97.80
2023-01-25T04:18:32.595Z,90.60
2023-01-25T04:20:59.571Z,97.80
2023-01-25T04:23:26.474Z,91.60
2023-01-25T04:26:02.696Z,92.30
2023-01-25T04:28:29.341Z,88.20
2023-01-25T04:30:57.687Z,85.40
2023-01-25T04:33:25.136Z,93.00
2023-01-25T04:35:51.963Z,86.80
2023-01-25T04:38:18.697Z,87.70
2023-01-25T04:40:45.528Z,83.60
2023-01-25T04:43:15.927Z,85.60
2023-01-25T04:45:42.755Z,95.00
2023-01-25T04:48:11.738Z,95.80
2023-01-25T04:50:40.657Z,94.90
2023-01-25T04:53:08.962Z,92.60
2023-01-25T04:55:35.955Z,94.70
2023-01-25T04:58:03.762Z,87.30
2023-01-25T05:00:30.630Z,135.90
2023-01-25T05:02:57.543Z,144.30
2023-01-25T05:05:24.102Z,110.00
2023-01-25T05:07:50.717Z,126.10
2023-01-25T05:10:17.250Z,89.20
2023-01-25T05:12:43.811Z,83.40
2023-01-25T05:15:11.353Z,83.30
2023-01-25T05:17:38.525Z,83.40
2023-01-25T05:20:05.548Z,79.20
2023-01-25T05:22:32.215Z,78.70
2023-01-25T05:24:58.914Z,78.30
2023-01-25T05:27:25.506Z,77.40
2023-01-25T05:29:52.473Z,79.60
2023-01-25T05:32:22.078Z,75.70
2023-01-25T05:34:49.053Z,75.40
2023-01-25T05:37:19.854Z,71.20
2023-01-25T05:39:46.427Z,73.40
2023-01-25T05:42:18.191Z,76.60
2023-01-25T05:44:47.375Z,75.80
2023-01-25T05:47:17.113Z,66.20
2023-01-25T05:49:43.687Z,74.10
2023-01-25T05:52:15.282Z,71.80
2023-01-25T05:54:42.637Z,81.10
2023-01-25T05:57:09.222Z,86.30
2023-01-25T05:59:36.109Z,77.20
2023-01-25T06:02:02.868Z,82.10
2023-01-25T06:04:29.571Z,88.90
2023-01-25T06:06:56.315Z,80.30
2023-01-25T06:09:23.091Z,77.90
2023-01-25T06:11:49.859Z,77.10
2023-01-25T06:14:16.587Z,79.50
2023-01-25T06:16:43.273Z,78.00
2023-01-25T06:19:13.523Z,76.10
2023-01-25T06:21:40.177Z,76.50
2023-01-25T06:24:07.405Z,73.60
2023-01-25T06:26:33.995Z,74.10
2023-01-25T06:29:00.563Z,73.90
2023-01-25T06:31:27.184Z,77.30
2023-01-25T06:33:53.837Z,70.10
2023-01-25T06:36:22.181Z,81.30
2023-01-25T06:38:50.708Z,89.20
2023-01-25T06:41:17.985Z,93.90
2023-01-25T06:43:45.377Z,92.00
2023-01-25T06:46:12.270Z,84.30
2023-01-25T06:48:40.556Z,99.40
2023-01-25T06:51:11.137Z,121.90
2023-01-25T06:53:41.819Z,139.40
2023-01-25T06:56:20.957Z,111.80
2023-01-25T06:58:48.589Z,84.70
2023-01-25T07:01:20.535Z,80.80
2023-01-25T07:03:55.861Z,75.00
2023-01-25T07:06:24.302Z,83.50
2023-01-25T07:08:51.724Z,76.80
2023-01-25T07:11:18.369Z,72.70
2023-01-25T07:13:46.550Z,72.30
2023-01-25T07:16:19.267Z,92.30
2023-01-25T07:18:47.130Z,100.60
2023-01-25T07:21:20.722Z,102.60
2023-01-25T07:23:48.979Z,106.70
2023-01-25T07:26:23.976Z,101.60
2023-01-25T07:28:52.136Z,99.80
2023-01-25T07:31:20.532Z,107.30
2023-01-25T07:33:52.971Z,108.30
2023-01-25T07:36:19.966Z,118.10
2023-01-25T07:38:46.920Z,131.20
2023-01-25T07:41:15.625Z,120.10
2023-01-25T07:43:42.223Z,117.20
2023-01-25T07:46:11.571Z,114.90
2023-01-25T07:48:39.622Z,93.60
2023-01-25T07:51:15.831Z,98.80
2023-01-25T07:53:43.228Z,102.70
2023-01-25T07:56:12.136Z,101.60
2023-01-25T07:58:39.827Z,94.20
2023-01-25T08:01:15.112Z,91.40
2023-01-25T08:03:43.446Z,84.10
2023-01-25T08:06:10.968Z,80.40
2023-01-25T08:08:42.438Z,78.60
2023-01-25T08:11:18.187Z,82.40
2023-01-25T08:13:45.685Z,78.00
2023-01-25T08:16:18.022Z,78.90
2023-01-25T08:18:59.265Z,76.40
2023-01-25T08:21:29.442Z,75.50
2023-01-25T08:24:01.200Z,78.50
2023-01-25T08:26:28.433Z,93.30
2023-01-25T08:28:55.980Z,88.60
2023-01-25T08:31:27.055Z,88.80
2023-01-25T08:33:54.296Z,79.80
2023-01-25T08:36:23.603Z,84.00
2023-01-25T08:38:55.630Z,82.80
2023-01-25T08:41:23.777Z,81.90
2023-01-25T08:43:53.413Z,67.90
2023-01-25T08:46:21.248Z,63.10
2023-01-25T08:48:47.906Z,60.30
2023-01-25T08:51:17.434Z,56.60
2023-01-25T08:53:44.131Z,54.90
2023-01-25T08:56:14.356Z,58.90
2023-01-25T08:58:46.542Z,57.60
2023-01-25T09:01:16.013Z,54.80
2023-01-25T09:03:49.246Z,48.60
2023-01-25T09:06:16.680Z,46.10
2023-01-25T09:08:43.813Z,44.70
2023-01-25T09:11:20.006Z,45.20
2023-01-25T09:13:48.325Z,38.80
2023-01-25T09:16:27.547Z,48.50
2023-01-25T09:19:00.319Z,51.50
2023-01-25T09:21:28.371Z,53.00
2023-01-25T09:24:10.911Z,56.30
2023-01-25T09:26:44.531Z,54.60
2023-01-25T09:29:14.545Z,51.60
2023-01-25T09:31:43.078Z,51.00
2023-01-25T09:34:11.877Z,54.70
2023-01-25T09:36:38.508Z,44.80
2023-01-25T09:39:05.835Z,46.70
2023-01-25T09:41:41.490Z,50.30
2023-01-25T09:44:15.241Z,48.40
2023-01-25T09:46:48.403Z,50.10
2023-01-25T09:50:00.726Z,45.30
2023-01-25T09:52:53.455Z,28.10
2023-01-25T09:55:24.528Z,30.60
2023-01-25T09:57:53.429Z,29.50
2023-01-25T10:00:27.983Z,33.10
2023-01-25T10:03:05.039Z,28.60
2023-01-25T10:05:40.827Z,37.90
2023-01-25T10:08:42.332Z,34.00
2023-01-25T10:11:26.798Z,25.80
2023-01-25T10:13:57.613Z,29.00
2023-01-25T10:16:47.284Z,26.60
2023-01-25T10:19:34.201Z,27.60
2023-01-25T10:22:11.277Z,26.90
2023-01-25T10:25:22.632Z,23.30
2023-01-25T10:28:05.643Z,20.40
2023-01-25T10:33:22.403Z,28.60
2023-01-25T10:35:50.087Z,25.50
2023-01-25T10:38:42.340Z,25.10
2023-01-25T10:41:34.994Z,22.20
2023-01-25T10:44:20.300Z,23.90
2023-01-25T10:46:58.035Z,24.00
2023-01-25T10:49:35.986Z,21.80
2023-01-25T10:52:29.954Z,22.70
2023-01-25T10:55:17.720Z,23.30
2023-01-25T10:57:58.993Z,24.60
2023-01-25T11:00:36.724Z,27.20
2023-01-25T11:03:04.280Z,26.10
2023-01-25T11:05:41.157Z,24.60
2023-01-25T11:08:33.915Z,21.40
2023-01-25T11:11:22.149Z,21.50
2023-01-25T11:13:48.886Z,23.30
2023-01-25T11:16:35.878Z,26.90
2023-01-25T11:19:09.629Z,25.40
2023-01-25T11:21:36.166Z,25.50
2023-01-25T11:24:27.462Z,24.30
2023-01-25T11:27:15.632Z,27.10
2023-01-25T11:29:42.197Z,30.50
2023-01-25T11:32:23.130Z,27.30
2023-01-25T11:34:50.957Z,29.80
2023-01-25T11:37:30.449Z,62.40
2023-01-25T11:40:12.544Z,23.50
2023-01-25T11:43:19.381Z,24.30
2023-01-25T11:46:01.016Z,23.10
2023-01-25T11:48:48.601Z,24.60
2023-01-25T11:52:09.916Z,22.90
2023-01-25T11:55:10.645Z,27.40
2023-01-25T11:58:11.850Z,29.90
2023-01-25T12:01:24.186Z,28.80
2023-01-25T12:04:51.935Z,27.10
2023-01-25T12:07:32.195Z,30.30
2023-01-25T12:10:41.220Z,30.70
2023-01-25T12:13:31.521Z,32.40
2023-01-25T12:16:10.106Z,33.30
2023-01-25T12:18:39.557Z,34.00
2023-01-25T12:21:13.308Z,32.10
2023-01-25T12:23:54.247Z,34.30
2023-01-25T12:26:26.629Z,36.70
2023-01-25T12:29:13.963Z,38.40
2023-01-25T12:31:53.049Z,37.20
2023-01-25T12:34:38.157Z,39.70
2023-01-25T12:37:14.160Z,36.10
2023-01-25T12:39:58.210Z,37.60
2023-01-25T12:42:35.819Z,31.40
2023-01-25T12:45:35.669Z,36.00
2023-01-25T12:48:12.526Z,40.30
2023-01-25T12:50:58.715Z,36.30
2023-01-25T12:53:50.450Z,39.80
2023-01-25T12:56:43.392Z,37.40
2023-01-25T12:59:45.740Z,32.50
2023-01-25T13:02:35.887Z,40.20
2023-01-25T13:05:28.243Z,39.60
2023-01-25T13:08:23.192Z,38.80
2023-01-25T13:11:21.408Z,38.80
2023-01-25T13:13:48.043Z,42.70
2023-01-25T13:16:30.269Z,35.70
2023-01-25T13:18:58.513Z,40.60
2023-01-25T13:21:40.423Z,41.70
2023-01-25T13:24:14.462Z,40.30
2023-01-25T13:26:48.710Z,41.50
2023-01-25T13:29:40.357Z,44.50
2023-01-25T13:32:32.675Z,37.70
2023-01-25T13:35:00.986Z,37.50
2023-01-25T13:37:35.284Z,39.90
2023-01-25T13:40:32.729Z,40.00
2023-01-25T13:43:05.073Z,37.40
2023-01-25T13:45:35.765Z,40.00
2023-01-25T13:48:19.102Z,43.60
2023-01-25T13:50:55.422Z,46.00
2023-01-25T13:53:28.852Z,41.60
2023-01-25T13:55:57.749Z,37.60
2023-01-25T13:58:36.735Z,38.30
2023-01-25T14:01:07.661Z,42.00
2023-01-25T14:04:00.969Z,35.90
2023-01-25T14:06:35.569Z,45.10
2023-01-25T14:09:16.266Z,46.10
2023-01-25T14:11:54.142Z,41.30
2023-01-25T14:14:30.815Z,37.50
2023-01-25T14:17:21.378Z,39.00
2023-01-25T14:19:51.954Z,42.30
2023-01-25T14:22:29.873Z,38.80
2023-01-25T14:25:11.333Z,41.60
2023-01-25T14:28:05.195Z,42.40
2023-01-25T14:30:34.096Z,50.10
2023-01-25T14:33:26.672Z,47.70
2023-01-25T14:36:00.026Z,43.00
2023-01-25T14:38:36.232Z,47.10
2023-01-25T14:41:28.711Z,51.70
2023-01-25T14:43:58.342Z,45.50
2023-01-25T14:46:30.427Z,50.50
2023-01-25T14:49:25.762Z,46.90
2023-01-25T14:52:11.201Z,44.30
2023-01-25T14:54:44.419Z,44.70
2023-01-25T14:57:31.423Z,52.40
2023-01-25T14:59:59.192Z,53.10
2023-01-25T15:02:55.798Z,57.50
2023-01-25T15:05:45.815Z,50.60
2023-01-25T15:08:15.104Z,56.30
2023-01-25T15:10:57.103Z,49.10
2023-01-25T15:13:27.994Z,38.80
2023-01-25T15:16:00.703Z,44.40
2023-01-25T15:21:27.196Z,50.60
2023-01-25T15:24:03.986Z,46.10
2023-01-25T15:26:33.903Z,52.50
2023-01-25T15:29:07.851Z,46.10
2023-01-25T15:31:36.954Z,44.40
2023-01-25T15:34:04.118Z,46.90
2023-01-25T15:36:32.795Z,49.90
2023-01-25T15:38:59.600Z,43.70
2023-01-25T15:41:26.364Z,41.80
2023-01-25T15:43:53.115Z,53.10
2023-01-25T15:46:28.250Z,52.50
2023-01-25T15:48:55.092Z,50.90
2023-01-25T15:51:22.933Z,48.90
2023-01-25T15:53:49.741Z,45.50
2023-01-25T15:56:28.379Z,46.60
2023-01-25T15:59:00.296Z,43.00
2023-01-25T16:01:29.544Z,50.80
2023-01-25T16:03:58.739Z,40.60
2023-01-25T16:06:42.348Z,43.50
2023-01-25T16:09:24.701Z,48.20
2023-01-25T16:11:54.806Z,43.10
2023-01-25T16:14:30.531Z,42.50
2023-01-25T16:17:01.842Z,42.30
2023-01-25T16:19:29.470Z,42.70
2023-01-25T16:21:56.519Z,45.00
2023-01-25T16:24:23.799Z,43.90
2023-01-25T16:26:54.322Z,52.80
2023-01-25T16:29:22.363Z,60.70
2023-01-25T16:31:49.828Z,141.20
2023-01-25T16:34:16.525Z,107.20
2023-01-25T16:36:49.461Z,58.90
2023-01-25T16:39:20.158Z,53.20
2023-01-25T16:41:48.390Z,54.30
2023-01-25T16:44:15.913Z,53.00
2023-01-25T16:46:42.400Z,53.10
2023-01-25T16:49:16.265Z,64.90
2023-01-25T16:51:44.716Z,53.60
2023-01-25T16:54:12.273Z,56.30
2023-01-25T16:56:38.976Z,56.20
2023-01-25T16:59:06.517Z,61.20
2023-01-25T17:01:33.188Z,53.40
2023-01-25T17:03:59.801Z,55.70
2023-01-25T17:06:33.500Z,54.30
2023-01-25T17:09:20.456Z,56.20
2023-01-25T17:11:49.217Z,59.10
2023-01-25T17:14:18.599Z,50.40
2023-01-25T17:16:47.480Z,56.60
2023-01-25T17:19:15.508Z,66.70
2023-01-25T17:21:42.591Z,84.10
2023-01-25T17:24:14.707Z,87.20
2023-01-25T17:26:42.998Z,81.30
2023-01-25T17:29:09.848Z,77.30
2023-01-25T17:31:37.263Z,176.70
2023-01-25T17:34:07.470Z,153.90
2023-01-25T17:36:34.271Z,130.40
2023-01-25T17:39:06.518Z,128.40
2023-01-25T17:41:33.223Z,90.90
2023-01-25T17:43:59.930Z,100.10
2023-01-25T17:46:33.262Z,110.90
2023-01-25T17:49:01.545Z,104.60
2023-01-25T17:51:28.267Z,94.60
2023-01-25T17:59:21.918Z,86.80
2023-01-25T18:01:50.422Z,76.70
2023-01-25T18:04:17.260Z,78.90
2023-01-25T18:06:44.252Z,111.90
2023-01-25T18:09:10.746Z,99.30
2023-01-25T18:11:40.141Z,80.40
2023-01-25T18:14:11.962Z,82.50
2023-01-25T18:16:40.314Z,96.60
2023-01-25T18:19:08.793Z,102.80
2023-01-25T18:21:37.131Z,96.40
2023-01-25T18:24:26.705Z,99.30
2023-01-25T18:27:05.282Z,87.00
2023-01-25T18:30:06.800Z,89.20
2023-01-25T18:32:33.978Z,94.40
2023-01-25T18:35:01.738Z,81.50
2023-01-25T18:37:32.977Z,75.70
2023-01-25T18:39:59.838Z,84.20
2023-01-25T18:42:27.341Z,85.70
2023-01-25T18:44:54.274Z,85.40
2023-01-25T18:47:22.905Z,82.20
2023-01-25T18:49:52.052Z,78.10
2023-01-25T18:52:21.441Z,74.10
2023-01-25T18:54:48.385Z,73.50
2023-01-25T18:57:15.971Z,63.80
2023-01-25T18:59:43.885Z,77.70
2023-01-25T19:02:13.423Z,80.20
2023-01-25T19:04:40.972Z,130.00
2023-01-25T19:07:08.156Z,149.20
2023-01-25T19:09:35.490Z,172.40
2023-01-25T19:12:02.382Z,162.80
2023-01-25T19:14:29.757Z,131.40
2023-01-25T19:16:57.236Z,190.60
2023-01-25T19:19:24.417Z,137.80
2023-01-25T19:21:51.589Z,158.80
2023-01-25T19:24:20.263Z,127.40
2023-01-25T19:26:47.802Z,106.50
2023-01-25T19:29:15.642Z,90.90
2023-01-25T19:31:42.824Z,71.20
2023-01-25T19:34:09.868Z,76.30
2023-01-25T19:36:45.347Z,81.40
2023-01-25T19:39:13.173Z,81.10
2023-01-25T19:41:40.568Z,74.50
2023-01-25T19:44:11.905Z,94.30
2023-01-25T19:46:39.589Z,129.50
2023-01-25T19:49:10.073Z,236.30
2023-01-25T19:51:41.797Z,267.30
2023-01-25T19:54:16.222Z,185.30
2023-01-25T19:56:46.896Z,129.70
2023-01-25T19:59:21.240Z,113.20
2023-01-25T20:01:49.415Z,99.50
2023-01-25T20:04:19.936Z,112.20
2023-01-25T20:06:48.850Z,146.40
2023-01-25T20:09:19.493Z,169.10
2023-01-25T20:11:47.145Z,191.80
2023-01-25T20:14:15.390Z,130.30
2023-01-25T20:16:43.063Z,139.00
2023-01-25T20:19:12.014Z,141.10
2023-01-25T20:21:40.051Z,152.00
2023-01-25T20:24:09.633Z,155.10
2023-01-25T20:26:39.175Z,149.90
2023-01-25T20:29:07.735Z,136.50
2023-01-25T20:31:37.522Z,153.00
2023-01-25T20:34:12.710Z,157.30
2023-01-25T20:36:43.034Z,145.10
2023-01-25T20:39:16.453Z,139.50
2023-01-25T20:41:44.427Z,114.00
2023-01-25T20:44:17.349Z,118.40
2023-01-25T20:46:45.457Z,138.80
2023-01-25T20:49:19.763Z,128.40
2023-01-25T20:51:47.653Z,114.50
2023-01-25T20:54:17.637Z,100.80
2023-01-25T20:56:47.546Z,101.00
2023-01-25T20:59:17.027Z,111.70
2023-01-25T21:01:45.139Z,106.60
2023-01-25T21:04:12.659Z,107.50
2023-01-25T21:06:40.190Z,101.30
2023-01-25T21:09:07.457Z,98.30
2023-01-25T21:11:34.880Z,98.20
2023-01-25T21:14:01.773Z,104.70
2023-01-25T21:16:28.742Z,100.10
2023-01-25T21:18:58.248Z,84.10
2023-01-25T21:21:30.761Z,94.10
2023-01-25T21:26:32.454Z,96.90
2023-01-25T21:29:01.336Z,78.70
2023-01-25T21:31:34.624Z,88.40
2023-01-25T21:34:02.932Z,91.50
2023-01-25T21:36:29.917Z,95.00
2023-01-25T21:38:57.571Z,92.40
2023-01-25T21:41:28.732Z,85.90
2023-01-25T21:44:16.307Z,93.40
2023-01-25T21:46:48.565Z,96.40
2023-01-25T21:49:41.274Z,95.30
2023-01-25T21:52:07.859Z,98.60
2023-01-25T21:54:36.442Z,99.30
2023-01-25T21:57:09.471Z,97.80
2023-01-25T21:59:37.807Z,100.30
2023-01-25T22:02:06.780Z,96.40
2023-01-25T22:04:35.361Z,93.20
2023-01-25T22:07:03.031Z,83.90
2023-01-25T22:09:29.735Z,79.90
2023-01-25T22:11:56.397Z,87.80
2023-01-25T22:14:23.172Z,99.10
2023-01-25T22:16:51.134Z,133.90
2023-01-25T22:19:18.123Z,146.30
2023-01-25T22:21:45.087Z,145.70
2023-01-25T22:24:13.229Z,143.10
2023-01-25T22:27:02.726Z,120.90
2023-01-25T22:29:29.651Z,125.10
2023-01-25T22:31:56.344Z,125.90
2023-01-25T22:34:22.909Z,120.10
2023-01-25T22:36:49.506Z,107.00
2023-01-25T22:39:16.268Z,101.90
2023-01-25T22:41:42.986Z,101.00
2023-01-25T22:44:09.659Z,101.00
2023-01-25T22:46:36.273Z,105.70
2023-01-25T22:49:04.178Z,94.70
2023-01-25T22:51:32.011Z,82.70
2023-01-25T22:53:59.683Z,91.40
2023-01-25T22:56:31.231Z,93.70
2023-01-25T22:58:59.422Z,91.20
2023-01-25T23:01:31.000Z,96.70
2023-01-25T23:03:58.599Z,92.80
2023-01-25T23:06:31.090Z,88.00
2023-01-25T23:09:00.538Z,97.50
2023-01-25T23:11:31.717Z,90.40
2023-01-25T23:14:17.752Z,91.30
2023-01-25T23:16:44.600Z,96.60
2023-01-25T23:19:11.361Z,92.70
2023-01-25T23:21:38.048Z,97.40
2023-01-25T23:24:05.388Z,91.60
2023-01-25T23:26:36.982Z,85.80
2023-01-25T23:29:07.536Z,82.80
2023-01-25T23:31:34.547Z,81.40
2023-01-25T23:34:04.915Z,90.10
2023-01-25T23:36:34.953Z,81.80
2023-01-25T23:39:01.979Z,92.90
2023-01-25T23:41:29.925Z,83.40
2023-01-25T23:43:57.641Z,80.10
2023-01-25T23:46:26.791Z,85.30
2023-01-25T23:48:53.461Z,73.40
2023-01-25T23:51:20.679Z,80.00
2023-01-25T23:53:47.818Z,80.20
2023-01-25T23:56:20.143Z,71.40
2023-01-25T23:58:48.294Z,77.60
